createdAt,value
2023-04-21T00:00:40.494Z,43.10
2023-04-21T00:01:40.459Z,43.51
2023-04-21T00:02:40.520Z,44.85
2023-04-21T00:03:40.473Z,43.75
2023-04-21T00:04:40.439Z,44.79
2023-04-21T00:05:40.485Z,46.95
2023-04-21T00:06:40.449Z,45.13
2023-04-21T00:07:40.393Z,44.77
2023-04-21T00:08:40.405Z,45.75
2023-04-21T00:09:40.356Z,45.19
2023-04-21T00:10:40.371Z,44.72
2023-04-21T00:11:40.345Z,45.16
2023-04-21T00:12:40.367Z,45.20
2023-04-21T00:13:40.360Z,45.05
2023-04-21T00:14:40.341Z,45.39
2023-04-21T00:15:40.350Z,46.03
2023-04-21T00:16:40.367Z,44.87
2023-04-21T00:17:40.322Z,44.53
2023-04-21T00:18:40.255Z,43.77
2023-04-21T00:19:40.278Z,43.57
2023-04-21T00:20:40.242Z,44.50
2023-04-21T00:21:40.251Z,45.83
2023-04-21T00:22:40.238Z,45.19
2023-04-21T00:23:40.272Z,43.26
2023-04-21T00:24:40.204Z,43.19
2023-04-21T00:25:40.220Z,42.73
2023-04-21T00:26:40.194Z,43.78
2023-04-21T00:27:40.268Z,43.65
2023-04-21T00:28:40.163Z,43.56
2023-04-21T00:29:40.160Z,45.56
2023-04-21T00:30:40.220Z,44.95
2023-04-21T00:31:40.271Z,44.51
2023-04-21T00:32:40.133Z,43.60
2023-04-21T00:33:40.111Z,43.23
2023-04-21T00:34:40.088Z,45.26
2023-04-21T00:35:40.153Z,44.87
2023-04-21T00:36:40.115Z,45.51
2023-04-21T00:37:40.117Z,46.67
2023-04-21T00:38:40.084Z,43.99
2023-04-21T00:39:40.120Z,42.47
2023-04-21T00:40:40.087Z,43.35
2023-04-21T00:41:40.098Z,44.93
2023-04-21T00:42:40.024Z,45.01
2023-04-21T00:43:40.054Z,43.96
2023-04-21T00:44:39.991Z,41.86
2023-04-21T00:45:40.006Z,43.52
2023-04-21T00:46:40.014Z,44.37
2023-04-21T00:47:40.029Z,44.39
2023-04-21T00:48:39.955Z,44.92
2023-04-21T00:49:39.986Z,43.74
2023-04-21T00:50:39.902Z,43.72
2023-04-21T00:51:39.957Z,45.01
2023-04-21T00:52:39.969Z,44.15
2023-04-21T00:53:39.916Z,44.30
2023-04-21T00:54:39.870Z,44.21
2023-04-21T00:55:39.904Z,43.70
2023-04-21T00:56:39.889Z,43.13
2023-04-21T00:57:39.948Z,43.72
2023-04-21T00:58:39.861Z,43.76
2023-04-21T00:59:39.885Z,43.63
2023-04-21T01:00:39.911Z,44.15
2023-04-21T01:01:39.915Z,43.82
2023-04-21T01:02:40.001Z,44.54
2023-04-21T01:03:40.044Z,43.94
2023-04-21T01:04:39.769Z,43.72
2023-04-21T01:05:39.812Z,47.04
2023-04-21T01:06:39.782Z,43.20
2023-04-21T01:07:39.793Z,43.33
2023-04-21T01:08:39.765Z,43.40
2023-04-21T01:09:39.721Z,43.92
2023-04-21T01:10:39.748Z,44.62
2023-04-21T01:11:39.743Z,44.72
2023-04-21T01:12:39.758Z,43.20
2023-04-21T01:13:39.762Z,43.31
2023-04-21T01:14:39.747Z,41.55
2023-04-21T01:15:39.687Z,42.09
2023-04-21T01:16:39.748Z,42.65
2023-04-21T01:17:39.737Z,42.76
2023-04-21T01:18:39.635Z,46.53
2023-04-21T01:19:39.648Z,42.78
2023-04-21T01:20:39.631Z,42.70
2023-04-21T01:21:39.627Z,42.65
2023-04-21T01:22:39.624Z,44.45
2023-04-21T01:23:39.628Z,41.78
2023-04-21T01:24:39.607Z,43.13
2023-04-21T01:25:39.583Z,48.23
2023-04-21T01:26:39.583Z,43.74
2023-04-21T01:27:39.639Z,41.64
2023-04-21T01:28:39.568Z,42.04
2023-04-21T01:29:39.509Z,43.88
2023-04-21T01:30:39.613Z,44.28
2023-04-21T01:31:39.673Z,43.14
2023-04-21T01:32:39.559Z,42.64
2023-04-21T01:33:39.544Z,44.24
2023-04-21T01:34:39.458Z,45.52
2023-04-21T01:35:39.487Z,44.66
2023-04-21T01:36:39.499Z,46.13
2023-04-21T01:37:39.519Z,44.90
2023-04-21T01:38:39.472Z,44.35
2023-04-21T01:39:39.502Z,45.29
2023-04-21T01:40:39.440Z,44.73
2023-04-21T01:41:39.430Z,43.13
2023-04-21T01:42:39.419Z,43.19
2023-04-21T01:43:39.526Z,44.38
2023-04-21T01:44:39.409Z,44.54
2023-04-21T01:45:39.460Z,43.87
2023-04-21T01:46:39.351Z,43.69
2023-04-21T01:47:39.392Z,43.71
2023-04-21T01:48:39.323Z,44.69
2023-04-21T01:49:39.337Z,45.09
2023-04-21T01:50:39.347Z,45.46
2023-04-21T01:51:39.375Z,44.77
2023-04-21T01:52:39.309Z,43.61
2023-04-21T01:53:39.294Z,43.53
2023-04-21T01:54:39.273Z,43.71
2023-04-21T01:55:39.320Z,43.93
2023-04-21T01:56:39.350Z,45.26
2023-04-21T01:57:39.502Z,44.94
2023-04-21T01:58:39.265Z,46.05
2023-04-21T01:59:39.279Z,43.51
2023-04-21T02:00:39.244Z,44.81
2023-04-21T02:01:39.254Z,43.62
2023-04-21T02:02:39.414Z,46.39
2023-04-21T02:03:39.353Z,46.63
2023-04-21T02:04:39.299Z,44.33
2023-04-21T02:05:39.163Z,44.21
2023-04-21T02:06:39.199Z,45.29
2023-04-21T02:07:39.240Z,43.43
2023-04-21T02:08:39.169Z,43.62
2023-04-21T02:09:39.133Z,44.10
2023-04-21T02:10:39.149Z,44.72
2023-04-21T02:11:39.123Z,44.05
2023-04-21T02:12:39.111Z,44.15
2023-04-21T02:13:39.175Z,47.59
2023-04-21T02:14:39.090Z,45.22
2023-04-21T02:15:39.139Z,43.97
2023-04-21T02:16:39.155Z,43.74
2023-04-21T02:17:39.056Z,44.60
2023-04-21T02:18:39.070Z,45.90
2023-04-21T02:19:39.001Z,47.42
2023-04-21T02:20:39.043Z,45.57
2023-04-21T02:21:39.004Z,43.94
2023-04-21T02:22:38.998Z,44.82
2023-04-21T02:23:38.968Z,43.06
2023-04-21T02:24:38.939Z,43.08
2023-04-21T02:25:38.976Z,43.83
2023-04-21T02:26:38.976Z,44.73
2023-04-21T02:27:39.945Z,46.52
2023-04-21T02:28:38.956Z,46.72
2023-04-21T02:29:38.942Z,47.48
2023-04-21T02:30:40.012Z,46.69
2023-04-21T02:31:54.189Z,45.73
2023-04-21T02:32:41.009Z,45.54
2023-04-21T02:33:38.955Z,45.43
2023-04-21T02:34:38.900Z,44.91
2023-04-21T02:35:38.869Z,45.53
2023-04-21T02:36:38.849Z,45.12
2023-04-21T02:37:38.872Z,45.41
2023-04-21T02:38:38.874Z,45.61
2023-04-21T02:39:38.853Z,49.54
2023-04-21T02:40:38.828Z,48.16
2023-04-21T02:41:38.807Z,47.27
2023-04-21T02:42:38.829Z,47.24
2023-04-21T02:43:38.795Z,46.21
2023-04-21T02:44:38.791Z,46.53
2023-04-21T02:45:38.773Z,46.40
2023-04-21T02:46:38.766Z,45.81
2023-04-21T02:47:38.773Z,46.49
2023-04-21T02:48:38.746Z,45.21
2023-04-21T02:49:38.721Z,45.28
2023-04-21T02:50:38.715Z,45.23
2023-04-21T02:51:38.724Z,45.90
2023-04-21T02:52:38.709Z,46.98
2023-04-21T02:53:38.698Z,46.31
2023-04-21T02:54:38.696Z,46.27
2023-04-21T02:55:38.647Z,45.82
2023-04-21T02:56:38.675Z,44.01
2023-04-21T02:57:38.689Z,43.53
2023-04-21T02:58:38.636Z,45.32
2023-04-21T02:59:38.638Z,47.98
2023-04-21T03:00:38.611Z,49.30
2023-04-21T03:01:38.589Z,47.44
2023-04-21T03:02:38.792Z,50.45
2023-04-21T03:03:38.662Z,46.76
2023-04-21T03:04:38.707Z,46.42
2023-04-21T03:05:38.584Z,47.32
2023-04-21T03:06:38.596Z,48.03
2023-04-21T03:07:38.545Z,46.92
2023-04-21T03:08:38.577Z,46.22
2023-04-21T03:09:38.557Z,50.15
2023-04-21T03:10:38.491Z,51.81
2023-04-21T03:11:38.555Z,51.25
2023-04-21T03:12:38.484Z,49.73
2023-04-21T03:13:38.553Z,49.50
2023-04-21T03:14:38.486Z,49.50
2023-04-21T03:15:38.485Z,50.00
2023-04-21T03:16:38.514Z,50.10
2023-04-21T03:17:38.445Z,49.58
2023-04-21T03:18:38.486Z,52.26
2023-04-21T03:19:38.519Z,55.35
2023-04-21T03:20:39.428Z,50.49
2023-04-21T03:21:38.397Z,50.50
2023-04-21T03:22:38.410Z,52.08
2023-04-21T03:23:38.384Z,52.29
2023-04-21T03:24:38.378Z,52.56
2023-04-21T03:25:38.427Z,53.16
2023-04-21T03:26:38.435Z,54.26
2023-04-21T03:27:38.348Z,55.86
2023-04-21T03:28:38.435Z,54.94
2023-04-21T03:29:38.386Z,56.47
2023-04-21T03:30:38.305Z,54.70
2023-04-21T03:31:38.339Z,56.44
2023-04-21T03:32:38.312Z,56.64
2023-04-21T03:33:38.341Z,55.03
2023-04-21T03:34:38.314Z,55.92
2023-04-21T03:35:38.279Z,57.01
2023-04-21T03:36:38.285Z,56.39
2023-04-21T03:37:38.315Z,56.12
2023-04-21T03:38:38.292Z,57.12
2023-04-21T03:39:38.243Z,56.01
2023-04-21T03:40:38.255Z,55.30
2023-04-21T03:41:38.373Z,56.59
2023-04-21T03:42:38.230Z,55.45
2023-04-21T03:43:38.226Z,56.25
2023-04-21T03:44:38.197Z,55.19
2023-04-21T03:45:38.189Z,52.35
2023-04-21T03:46:38.188Z,53.30
2023-04-21T03:47:38.220Z,52.49
2023-04-21T03:48:38.216Z,51.90
2023-04-21T03:49:38.097Z,51.93
2023-04-21T03:50:38.119Z,55.18
2023-04-21T03:51:38.118Z,51.95
2023-04-21T03:52:38.096Z,52.21
2023-04-21T03:53:38.066Z,51.38
2023-04-21T03:54:38.117Z,50.33
2023-04-21T03:55:38.072Z,47.73
2023-04-21T03:56:38.149Z,48.80
2023-04-21T03:57:38.071Z,50.46
2023-04-21T03:58:38.066Z,48.80
2023-04-21T03:59:38.015Z,47.90
2023-04-21T04:00:38.016Z,49.07
2023-04-21T04:01:38.017Z,50.18
2023-04-21T04:02:38.140Z,51.53
2023-04-21T04:03:38.137Z,54.92
2023-04-21T04:04:38.245Z,49.56
2023-04-21T04:05:38.092Z,48.80
2023-04-21T04:06:37.956Z,52.97
2023-04-21T04:07:37.962Z,52.79
2023-04-21T04:08:37.978Z,52.77
2023-04-21T04:09:37.950Z,49.63
2023-04-21T04:10:37.942Z,50.85
2023-04-21T04:11:37.890Z,50.36
2023-04-21T04:12:37.878Z,53.81
2023-04-21T04:13:37.949Z,50.51
2023-04-21T04:14:37.942Z,48.81
2023-04-21T04:15:37.873Z,51.85
2023-04-21T04:16:37.866Z,55.89
2023-04-21T04:17:37.913Z,50.01
2023-04-21T04:18:37.823Z,55.18
2023-04-21T04:19:37.799Z,49.27
2023-04-21T04:20:37.825Z,51.21
2023-04-21T04:21:37.792Z,49.07
2023-04-21T04:22:37.867Z,52.08
2023-04-21T04:23:37.839Z,50.52
2023-04-21T04:24:37.782Z,53.82
2023-04-21T04:25:37.770Z,53.14
2023-04-21T04:26:37.749Z,50.32
2023-04-21T04:27:37.815Z,50.58
2023-04-21T04:28:37.739Z,49.62
2023-04-21T04:29:37.695Z,53.62
2023-04-21T04:30:37.754Z,51.59
2023-04-21T04:31:37.750Z,53.28
2023-04-21T04:32:37.733Z,51.33
2023-04-21T04:33:37.668Z,48.40
2023-04-21T04:34:37.766Z,52.04
2023-04-21T04:35:37.652Z,49.31
2023-04-21T04:36:37.634Z,52.49
2023-04-21T04:37:37.604Z,47.03
2023-04-21T04:38:37.630Z,47.02
2023-04-21T04:39:37.607Z,52.74
2023-04-21T04:40:37.592Z,51.78
2023-04-21T04:41:37.577Z,51.69
2023-04-21T04:42:37.554Z,56.38
2023-04-21T04:43:37.575Z,49.33
2023-04-21T04:44:37.551Z,52.79
2023-04-21T04:45:37.547Z,51.74
2023-04-21T04:46:37.590Z,50.71
2023-04-21T04:47:37.586Z,51.13
2023-04-21T04:48:37.545Z,52.20
2023-04-21T04:49:37.499Z,50.19
2023-04-21T04:50:37.472Z,53.15
2023-04-21T04:51:37.569Z,51.91
2023-04-21T04:52:37.463Z,52.71
2023-04-21T04:53:37.506Z,52.07
2023-04-21T04:54:37.451Z,48.96
2023-04-21T04:55:37.586Z,51.82
2023-04-21T04:56:37.401Z,49.43
2023-04-21T04:57:37.504Z,48.57
2023-04-21T04:58:37.573Z,50.36
2023-04-21T04:59:37.408Z,50.20
2023-04-21T05:00:37.609Z,51.56
2023-04-21T05:01:37.495Z,53.94
2023-04-21T05:02:37.598Z,54.68
2023-04-21T05:03:37.452Z,50.25
2023-04-21T05:04:37.459Z,49.95
2023-04-21T05:05:37.318Z,53.12
2023-04-21T05:06:37.377Z,49.57
2023-04-21T05:07:37.411Z,50.34
2023-04-21T05:08:37.313Z,52.14
2023-04-21T05:09:37.383Z,48.18
2023-04-21T05:10:37.348Z,52.65
2023-04-21T05:11:37.272Z,49.50
2023-04-21T05:12:37.312Z,46.50
2023-04-21T05:13:39.542Z,49.50
2023-04-21T05:14:37.282Z,51.39
2023-04-21T05:15:37.268Z,49.82
2023-04-21T05:16:37.334Z,52.51
2023-04-21T05:17:37.296Z,52.63
2023-04-21T05:18:38.210Z,52.45
2023-04-21T05:19:37.223Z,54.93
2023-04-21T05:20:37.203Z,49.30
2023-04-21T05:21:37.201Z,52.71
2023-04-21T05:22:37.191Z,52.66
2023-04-21T05:23:37.228Z,52.07
2023-04-21T05:24:37.189Z,50.96
2023-04-21T05:25:37.165Z,50.42
2023-04-21T05:26:37.143Z,55.65
2023-04-21T05:27:37.137Z,48.16
2023-04-21T05:28:37.172Z,56.71
2023-04-21T05:29:37.194Z,54.14
2023-04-21T05:30:37.222Z,54.84
2023-04-21T05:31:37.127Z,66.63
2023-04-21T05:32:37.155Z,54.90
2023-04-21T05:33:37.055Z,52.57
2023-04-21T05:34:37.175Z,50.47
2023-04-21T05:35:38.017Z,52.54
2023-04-21T05:36:38.078Z,55.05
2023-04-21T05:37:37.062Z,51.40
2023-04-21T05:38:37.064Z,51.70
2023-04-21T05:39:37.033Z,51.43
2023-04-21T05:40:37.010Z,49.99
2023-04-21T05:41:37.038Z,50.70
2023-04-21T05:42:37.009Z,50.34
2023-04-21T05:43:36.995Z,52.15
2023-04-21T05:44:36.972Z,48.53
2023-04-21T05:45:37.073Z,50.89
2023-04-21T05:46:37.022Z,57.26
2023-04-21T05:47:36.992Z,56.80
2023-04-21T05:48:36.974Z,56.68
2023-04-21T05:49:36.974Z,53.43
2023-04-21T05:50:36.993Z,55.56
2023-04-21T05:51:36.908Z,52.18
2023-04-21T05:52:36.915Z,55.08
2023-04-21T05:53:36.988Z,54.47
2023-04-21T05:54:36.986Z,54.53
2023-04-21T05:55:36.956Z,55.27
2023-04-21T05:56:37.020Z,56.07
2023-04-21T05:57:36.923Z,55.19
2023-04-21T05:58:36.908Z,54.81
2023-04-21T05:59:36.903Z,52.15
2023-04-21T06:00:36.823Z,56.53
2023-04-21T06:01:36.888Z,51.58
2023-04-21T06:02:37.001Z,53.59
2023-04-21T06:03:36.821Z,54.23
2023-04-21T06:04:36.956Z,51.72
2023-04-21T06:05:36.809Z,52.83
2023-04-21T06:06:36.734Z,55.87
2023-04-21T06:07:36.716Z,55.94
2023-04-21T06:08:36.737Z,49.60
2023-04-21T06:09:36.778Z,52.41
2023-04-21T06:10:36.708Z,55.84
2023-04-21T06:11:36.741Z,50.94
2023-04-21T06:12:36.727Z,49.40
2023-04-21T06:13:38.226Z,48.50
2023-04-21T06:14:36.654Z,52.83
2023-04-21T06:15:36.684Z,55.95
2023-04-21T06:16:36.736Z,53.36
2023-04-21T06:17:36.696Z,52.75
2023-04-21T06:18:36.614Z,54.32
2023-04-21T06:19:36.604Z,52.74
2023-04-21T06:20:36.664Z,48.10
2023-04-21T06:21:36.620Z,46.99
2023-04-21T06:22:36.601Z,49.68
2023-04-21T06:23:36.597Z,52.38
2023-04-21T06:24:36.547Z,51.84
2023-04-21T06:25:36.561Z,51.38
2023-04-21T06:26:36.461Z,47.88
2023-04-21T06:27:36.499Z,47.06
2023-04-21T06:28:37.510Z,47.89
2023-04-21T06:29:36.534Z,49.42
2023-04-21T06:30:36.482Z,46.18
2023-04-21T06:31:36.545Z,46.71
2023-04-21T06:32:36.498Z,53.69
2023-04-21T06:33:36.504Z,55.78
2023-04-21T06:34:36.407Z,48.84
2023-04-21T06:35:36.436Z,50.42
2023-04-21T06:36:36.448Z,47.56
2023-04-21T06:37:36.417Z,47.18
2023-04-21T06:38:36.393Z,56.60
2023-04-21T06:39:36.401Z,50.47
2023-04-21T06:40:36.436Z,53.87
2023-04-21T06:41:36.410Z,50.87
2023-04-21T06:42:36.376Z,49.66
2023-04-21T06:43:36.321Z,51.38
2023-04-21T06:44:36.350Z,49.99
2023-04-21T06:45:36.330Z,51.89
2023-04-21T06:46:36.484Z,47.73
2023-04-21T06:47:36.453Z,52.31
2023-04-21T06:48:36.352Z,48.19
2023-04-21T06:49:36.369Z,49.22
2023-04-21T06:50:36.235Z,46.62
2023-04-21T06:51:36.208Z,48.44
2023-04-21T06:52:36.227Z,53.14
2023-04-21T06:53:36.312Z,47.34
2023-04-21T06:54:36.249Z,48.59
2023-04-21T06:55:36.335Z,47.19
2023-04-21T06:56:36.260Z,45.03
2023-04-21T07:00:35.815Z,45.26
2023-04-21T07:01:35.956Z,48.47
2023-04-21T07:02:35.845Z,48.69
2023-04-21T07:03:35.928Z,51.62
2023-04-21T07:04:35.805Z,47.91
2023-04-21T07:05:35.768Z,46.78
2023-04-21T07:06:35.861Z,50.23
2023-04-21T07:13:04.418Z,45.18
2023-04-21T07:14:04.328Z,49.80
2023-04-21T07:15:04.724Z,47.49
2023-04-21T07:16:04.281Z,48.20
2023-04-21T07:17:04.347Z,51.55
2023-04-21T07:18:04.301Z,55.66
2023-04-21T07:19:04.287Z,48.04
2023-04-21T07:20:04.266Z,48.10
2023-04-21T07:21:04.253Z,45.79
2023-04-21T07:22:04.228Z,44.24
2023-04-21T07:23:04.230Z,46.37
2023-04-21T07:24:04.255Z,49.02
2023-04-21T07:25:25.868Z,47.82
2023-04-21T07:26:04.249Z,52.86
2023-04-21T07:27:04.187Z,53.47
2023-04-21T07:28:04.186Z,48.47
2023-04-21T07:29:04.391Z,48.03
2023-04-21T07:30:04.172Z,50.60
2023-04-21T07:31:04.198Z,49.95
2023-04-21T07:32:04.136Z,50.80
2023-04-21T07:33:04.185Z,45.29
2023-04-21T07:34:04.141Z,49.90
2023-04-21T07:35:04.127Z,52.37
2023-04-21T07:36:04.103Z,48.06
2023-04-21T07:37:04.141Z,44.31
2023-04-21T07:38:04.065Z,46.88
2023-04-21T07:39:04.097Z,45.13
2023-04-21T07:40:04.060Z,47.97
2023-04-21T07:41:04.118Z,49.62
2023-04-21T07:42:04.027Z,45.31
2023-04-21T07:43:04.094Z,46.44
2023-04-21T07:44:04.290Z,44.19
2023-04-21T07:45:04.011Z,44.73
2023-04-21T07:46:04.021Z,48.84
2023-04-21T07:47:03.990Z,46.83
2023-04-21T07:48:04.083Z,46.54
2023-04-21T07:49:04.255Z,45.81
2023-04-21T07:50:03.938Z,44.87
2023-04-21T07:51:03.942Z,50.55
2023-04-21T07:52:03.965Z,49.02
2023-04-21T07:53:03.922Z,48.68
2023-04-21T07:54:03.910Z,49.41
2023-04-21T07:55:03.912Z,48.68
2023-04-21T07:56:03.940Z,49.50
2023-04-21T07:57:03.857Z,48.32
2023-04-21T07:58:03.853Z,53.61
2023-04-21T07:59:03.892Z,45.84
2023-04-21T08:00:03.935Z,45.91
2023-04-21T08:01:03.826Z,44.76
2023-04-21T08:02:34.093Z,48.48
2023-04-21T08:03:16.214Z,48.43
2023-04-21T08:04:12.610Z,45.96
2023-04-21T08:05:04.042Z,49.43
2023-04-21T08:06:05.089Z,47.08
2023-04-21T08:07:05.305Z,48.65
2023-04-21T08:08:04.924Z,45.79
2023-04-21T08:09:04.894Z,50.17
2023-04-21T08:10:04.911Z,52.23
2023-04-21T08:11:05.002Z,47.82
2023-04-21T08:12:04.928Z,50.35
2023-04-21T08:13:04.915Z,48.56
2023-04-21T08:14:04.859Z,51.49
2023-04-21T08:15:04.837Z,47.95
2023-04-21T08:16:04.843Z,47.84
2023-04-21T08:17:04.806Z,44.28
2023-04-21T08:18:04.901Z,50.58
2023-04-21T08:19:04.860Z,49.23
2023-04-21T08:20:04.838Z,48.29
2023-04-21T08:21:04.878Z,46.93
2023-04-21T08:22:04.841Z,52.94
2023-04-21T08:23:04.861Z,47.63
2023-04-21T08:24:04.751Z,48.79
2023-04-21T08:25:04.879Z,49.09
2023-04-21T08:26:04.806Z,46.28
2023-04-21T08:27:04.753Z,44.73
2023-04-21T08:28:04.760Z,49.40
2023-04-21T08:29:04.788Z,45.43
2023-04-21T08:30:04.762Z,49.17
2023-04-21T08:31:04.852Z,52.49
2023-04-21T08:32:04.729Z,47.77
2023-04-21T08:33:04.735Z,46.54
2023-04-21T08:34:04.740Z,51.77
2023-04-21T08:35:04.737Z,47.07
2023-04-21T08:36:12.270Z,46.90
2023-04-21T08:37:06.644Z,46.64
2023-04-21T08:38:04.626Z,49.24
2023-04-21T08:39:04.641Z,44.18
2023-04-21T08:40:04.613Z,45.93
2023-04-21T08:41:04.587Z,46.40
2023-04-21T08:42:04.637Z,48.20
2023-04-21T08:43:04.602Z,50.89
2023-04-21T08:44:04.558Z,47.08
2023-04-21T08:45:04.575Z,55.06
2023-04-21T08:46:04.651Z,49.63
2023-04-21T08:47:04.548Z,50.75
2023-04-21T08:48:04.646Z,47.58
2023-04-21T08:49:04.521Z,47.72
2023-04-21T08:50:04.515Z,47.32
2023-04-21T08:51:04.516Z,45.20
2023-04-21T08:52:04.513Z,47.67
2023-04-21T08:53:04.483Z,49.25
2023-04-21T08:54:04.497Z,50.11
2023-04-21T08:55:04.489Z,52.46
2023-04-21T08:56:11.349Z,46.02
2023-04-21T08:57:15.505Z,53.44
2023-04-21T08:58:06.484Z,51.72
2023-04-21T08:59:04.425Z,47.73
2023-04-21T09:00:06.397Z,49.86
2023-04-21T09:01:04.473Z,50.61
2023-04-21T09:02:05.501Z,48.78
2023-04-21T09:03:08.584Z,47.65
2023-04-21T09:04:05.488Z,49.25
2023-04-21T09:05:04.647Z,48.55
2023-04-21T09:06:04.677Z,48.87
2023-04-21T09:07:04.383Z,46.33
2023-04-21T09:08:04.369Z,50.70
2023-04-21T09:09:04.328Z,50.11
2023-04-21T09:10:04.428Z,50.66
2023-04-21T09:11:04.344Z,46.44
2023-04-21T09:12:04.297Z,49.07
2023-04-21T09:13:04.285Z,46.15
2023-04-21T09:14:05.266Z,46.77
2023-04-21T09:15:04.311Z,44.61
2023-04-21T09:16:06.617Z,52.58
2023-04-21T09:17:04.605Z,50.95
2023-04-21T09:18:04.313Z,54.30
2023-04-21T09:19:04.332Z,48.92
2023-04-21T09:20:04.254Z,49.92
2023-04-21T09:21:04.293Z,47.69
2023-04-21T09:22:04.248Z,49.46
2023-04-21T09:23:04.242Z,44.68
2023-04-21T09:24:04.225Z,47.91
2023-04-21T09:25:04.185Z,47.46
2023-04-21T09:26:04.209Z,46.68
2023-04-21T09:27:04.179Z,47.44
2023-04-21T09:28:04.213Z,48.49
2023-04-21T09:29:04.205Z,46.26
2023-04-21T09:30:04.112Z,47.00
2023-04-21T09:31:04.266Z,45.94
2023-04-21T09:32:04.119Z,47.21
2023-04-21T09:33:13.364Z,46.30
2023-04-21T09:34:06.148Z,47.48
2023-04-21T09:35:04.122Z,48.54
2023-04-21T09:36:04.121Z,46.79
2023-04-21T09:37:04.086Z,48.73
2023-04-21T09:38:04.044Z,49.01
2023-04-21T09:39:29.068Z,52.33
2023-04-21T09:40:06.083Z,44.14
2023-04-21T09:41:05.069Z,46.03
2023-04-21T09:42:04.003Z,42.97
2023-04-21T09:43:04.036Z,51.35
2023-04-21T09:44:04.071Z,47.64
2023-04-21T09:45:16.827Z,44.97
2023-04-21T09:46:06.131Z,50.02
2023-04-21T09:47:04.010Z,46.45
2023-04-21T09:48:04.035Z,49.52
2023-04-21T09:49:05.028Z,50.39
2023-04-21T09:50:03.940Z,50.32
2023-04-21T09:51:25.406Z,52.16
2023-04-21T09:52:18.393Z,47.17
2023-04-21T09:53:05.947Z,44.28
2023-04-21T09:54:04.005Z,50.19
2023-04-21T09:55:03.900Z,49.28
2023-04-21T09:56:03.931Z,48.42
2023-04-21T09:57:03.972Z,45.98
2023-04-21T09:58:03.898Z,46.32
2023-04-21T09:59:03.893Z,48.86
2023-04-21T10:00:03.864Z,50.96
2023-04-21T10:01:04.059Z,53.81
2023-04-21T10:02:03.936Z,46.64
2023-04-21T10:03:04.066Z,49.67
2023-04-21T10:04:03.906Z,48.35
2023-04-21T10:05:03.971Z,46.75
2023-04-21T10:06:04.016Z,45.50
2023-04-21T10:07:03.832Z,44.93
2023-04-21T10:08:03.791Z,46.86
2023-04-21T10:09:03.773Z,47.03
2023-04-21T10:10:03.789Z,44.94
2023-04-21T10:11:03.776Z,50.32
2023-04-21T10:12:03.782Z,46.11
2023-04-21T10:13:03.746Z,53.92
2023-04-21T10:14:03.727Z,60.45
2023-04-21T10:15:03.730Z,50.69
2023-04-21T10:16:03.857Z,45.93
2023-04-21T10:17:03.719Z,46.88
2023-04-21T10:18:03.713Z,47.63
2023-04-21T10:19:03.713Z,50.04
2023-04-21T10:20:03.703Z,51.44
2023-04-21T10:21:03.945Z,54.29
2023-04-21T10:22:03.736Z,51.70
2023-04-21T10:23:03.669Z,45.91
2023-04-21T10:24:03.651Z,46.79
2023-04-21T10:25:03.646Z,51.44
2023-04-21T10:26:03.641Z,50.19
2023-04-21T10:27:03.621Z,48.30
2023-04-21T10:28:03.644Z,49.40
2023-04-21T10:29:03.614Z,44.00
2023-04-21T10:30:03.638Z,51.54
2023-04-21T10:31:03.605Z,45.37
2023-04-21T10:32:03.671Z,45.19
2023-04-21T10:33:03.707Z,49.14
2023-04-21T10:34:03.548Z,50.96
2023-04-21T10:35:03.588Z,42.11
2023-04-21T10:36:03.559Z,46.87
2023-04-21T10:37:03.472Z,43.97
2023-04-21T10:38:03.505Z,47.04
2023-04-21T10:39:03.503Z,48.65
2023-04-21T10:40:03.516Z,46.62
2023-04-21T10:41:04.504Z,48.85
2023-04-21T10:42:03.496Z,44.07
2023-04-21T10:43:03.423Z,48.31
2023-04-21T10:44:03.437Z,49.19
2023-04-21T10:45:03.396Z,49.95
2023-04-21T10:46:03.432Z,46.75
2023-04-21T10:47:03.525Z,49.75
2023-04-21T10:48:03.475Z,48.04
2023-04-21T10:49:04.043Z,51.20
2023-04-21T10:50:04.276Z,47.76
2023-04-21T10:51:03.420Z,47.03
2023-04-21T10:52:03.370Z,52.34
2023-04-21T10:53:03.368Z,46.26
2023-04-21T10:54:03.367Z,47.09
2023-04-21T10:55:03.360Z,47.19
2023-04-21T10:56:03.368Z,48.20
2023-04-21T10:57:03.400Z,51.35
2023-04-21T10:58:03.322Z,49.64
2023-04-21T10:59:03.335Z,48.37
2023-04-21T11:00:03.388Z,46.65
2023-04-21T11:01:03.318Z,45.04
2023-04-21T11:02:03.322Z,45.92
2023-04-21T11:03:03.401Z,47.49
2023-04-21T11:04:03.362Z,47.07
2023-04-21T11:05:03.338Z,46.39
2023-04-21T11:06:03.275Z,42.65
2023-04-21T11:07:03.261Z,46.76
2023-04-21T11:08:03.359Z,47.40
2023-04-21T11:09:03.255Z,46.82
2023-04-21T11:10:03.191Z,50.10
2023-04-21T11:11:03.192Z,44.65
2023-04-21T11:12:03.172Z,45.73
2023-04-21T11:13:03.272Z,47.54
2023-04-21T11:14:03.181Z,43.12
2023-04-21T11:15:03.200Z,52.80
2023-04-21T11:16:03.238Z,47.66
2023-04-21T11:17:03.189Z,48.83
2023-04-21T11:18:03.154Z,48.40
2023-04-21T11:19:03.119Z,48.00
2023-04-21T11:20:03.085Z,46.95
2023-04-21T11:21:03.121Z,48.08
2023-04-21T11:22:03.107Z,49.40
2023-04-21T11:23:03.107Z,47.80
2023-04-21T11:24:03.065Z,46.22
2023-04-21T11:25:03.061Z,48.73
2023-04-21T11:26:03.050Z,46.12
2023-04-21T11:27:03.046Z,48.51
2023-04-21T11:28:02.997Z,47.12
2023-04-21T11:29:03.047Z,48.60
2023-04-21T11:30:03.004Z,46.07
2023-04-21T11:31:03.083Z,47.21
2023-04-21T11:32:03.024Z,45.94
2023-04-21T11:33:03.082Z,47.36
2023-04-21T11:34:02.954Z,47.79
2023-04-21T11:35:02.948Z,48.36
2023-04-21T11:36:02.994Z,48.68
2023-04-21T11:37:02.986Z,44.60
2023-04-21T11:38:02.911Z,48.88
2023-04-21T11:39:02.948Z,47.49
2023-04-21T11:40:02.923Z,48.64
2023-04-21T11:41:02.890Z,45.94
2023-04-21T11:42:02.936Z,49.01
2023-04-21T11:43:02.877Z,52.65
2023-04-21T11:44:02.924Z,49.44
2023-04-21T11:45:03.724Z,47.20
2023-04-21T11:46:02.870Z,47.91
2023-04-21T11:47:02.852Z,49.91
2023-04-21T11:48:02.871Z,51.03
2023-04-21T11:49:02.868Z,48.70
2023-04-21T11:50:02.844Z,48.58
2023-04-21T11:51:02.799Z,47.85
2023-04-21T11:52:02.782Z,48.46
2023-04-21T11:53:02.798Z,47.54
2023-04-21T11:54:02.829Z,49.39
2023-04-21T11:55:02.803Z,48.24
2023-04-21T11:56:02.770Z,49.93
2023-04-21T11:57:03.006Z,46.41
2023-04-21T11:58:02.781Z,47.23
2023-04-21T11:59:02.778Z,48.76
2023-04-21T12:00:02.802Z,45.72
2023-04-21T12:01:02.724Z,44.48
2023-04-21T12:02:02.734Z,49.07
2023-04-21T12:03:02.801Z,48.35
2023-04-21T12:04:02.807Z,47.26
2023-04-21T12:05:02.857Z,52.17
2023-04-21T12:06:02.766Z,50.93
2023-04-21T12:07:02.670Z,46.58
2023-04-21T12:08:02.621Z,49.40
2023-04-21T12:09:02.601Z,48.79
2023-04-21T12:10:02.594Z,48.49
2023-04-21T12:11:02.594Z,50.96
2023-04-21T12:12:02.628Z,47.23
2023-04-21T12:13:02.598Z,49.43
2023-04-21T12:14:02.554Z,49.51
2023-04-21T12:15:02.604Z,49.05
2023-04-21T12:16:02.585Z,49.23
2023-04-21T12:17:02.586Z,49.16
2023-04-21T12:18:02.569Z,46.40
2023-04-21T12:19:02.573Z,47.43
2023-04-21T12:20:02.522Z,50.45
2023-04-21T12:21:02.491Z,52.23
2023-04-21T12:22:02.498Z,54.05
2023-04-21T12:23:02.497Z,49.37
2023-04-21T12:24:02.513Z,48.19
2023-04-21T12:25:02.472Z,47.89
2023-04-21T12:26:02.476Z,48.83
2023-04-21T12:27:02.465Z,51.24
2023-04-21T12:28:02.438Z,53.52
2023-04-21T12:29:03.272Z,48.06
2023-04-21T12:30:02.445Z,51.80
2023-04-21T12:31:02.452Z,46.53
2023-04-21T12:32:02.690Z,49.99
2023-04-21T12:33:02.564Z,48.84
2023-04-21T12:34:02.574Z,50.38
2023-04-21T12:35:02.401Z,49.51
2023-04-21T12:36:02.405Z,46.38
2023-04-21T12:37:02.453Z,49.48
2023-04-21T12:38:02.372Z,50.28
2023-04-21T12:39:02.507Z,46.24
2023-04-21T12:40:02.455Z,44.98
2023-04-21T12:41:02.389Z,50.97
2023-04-21T12:42:02.385Z,48.84
2023-04-21T12:43:02.396Z,46.26
2023-04-21T12:44:02.399Z,48.73
2023-04-21T12:45:02.439Z,50.39
2023-04-21T12:46:02.490Z,51.58
2023-04-21T12:47:02.369Z,46.24
2023-04-21T12:48:02.411Z,47.14
2023-04-21T12:49:02.344Z,46.22
2023-04-21T12:50:02.297Z,47.67
2023-04-21T12:51:02.431Z,49.20
2023-04-21T12:52:02.345Z,49.39
2023-04-21T12:53:02.321Z,47.13
2023-04-21T12:54:02.353Z,50.36
2023-04-21T12:55:02.291Z,47.77
2023-04-21T12:56:05.206Z,49.52
2023-04-21T12:57:03.255Z,49.56
2023-04-21T12:58:02.265Z,48.15
2023-04-21T12:59:02.289Z,47.43
2023-04-21T13:00:02.222Z,51.99
2023-04-21T13:01:02.185Z,45.08